sensor_id;sensor_type;location;lat;lon;timestamp;P1;durP1;ratioP1;P2;durP2;ratioP2
10031;SDS011;5056;44.272;19.892;2023-07-13T00:01:17;7.47;;;6.72;;
10031;SDS011;5056;44.272;19.892;2023-07-13T00:03:44;6.88;;;6.38;;
10031;SDS011;5056;44.272;19.892;2023-07-13T00:06:17;7.35;;;6.70;;
10031;SDS011;5056;44.272;19.892;2023-07-13T00:08:46;6.90;;;6.28;;
10031;SDS011;5056;44.272;19.892;2023-07-13T00:11:14;7.82;;;6.97;;
10031;SDS011;5056;44.272;19.892;2023-07-13T00:14:00;7.72;;;7.00;;
10031;SDS011;5056;44.272;19.892;2023-07-13T00:16:28;7.13;;;6.43;;
10031;SDS011;5056;44.272;19.892;2023-07-13T00:18:56;7.80;;;7.03;;
10031;SDS011;5056;44.272;19.892;2023-07-13T00:21:25;7.72;;;6.43;;
10031;SDS011;5056;44.272;19.892;2023-07-13T00:23:53;7.20;;;6.60;;
10031;SDS011;5056;44.272;19.892;2023-07-13T00:26:23;7.57;;;6.88;;
10031;SDS011;5056;44.272;19.892;2023-07-13T00:28:54;7.82;;;7.03;;
10031;SDS011;5056;44.272;19.892;2023-07-13T00:31:25;7.13;;;6.50;;
10031;SDS011;5056;44.272;19.892;2023-07-13T00:33:52;7.75;;;7.25;;
10031;SDS011;5056;44.272;19.892;2023-07-13T00:36:21;8.18;;;7.07;;
10031;SDS011;5056;44.272;19.892;2023-07-13T00:38:48;7.97;;;7.18;;
10031;SDS011;5056;44.272;19.892;2023-07-13T00:41:18;7.22;;;6.50;;
10031;SDS011;5056;44.272;19.892;2023-07-13T00:43:45;7.72;;;7.03;;
10031;SDS011;5056;44.272;19.892;2023-07-13T00:46:21;9.93;;;7.00;;
10031;SDS011;5056;44.272;19.892;2023-07-13T00:48:50;7.47;;;6.72;;
10031;SDS011;5056;44.272;19.892;2023-07-13T00:51:19;7.53;;;6.80;;
10031;SDS011;5056;44.272;19.892;2023-07-13T00:53:50;7.97;;;7.18;;
10031;SDS011;5056;44.272;19.892;2023-07-13T00:56:18;6.57;;;6.03;;
10031;SDS011;5056;44.272;19.892;2023-07-13T00:58:48;7.43;;;6.30;;
10031;SDS011;5056;44.272;19.892;2023-07-13T01:01:19;6.75;;;6.25;;
10031;SDS011;5056;44.272;19.892;2023-07-13T01:03:48;6.78;;;6.00;;
10031;SDS011;5056;44.272;19.892;2023-07-13T01:06:19;8.80;;;6.70;;
10031;SDS011;5056;44.272;19.892;2023-07-13T01:08:47;7.57;;;6.88;;
10031;SDS011;5056;44.272;19.892;2023-07-13T01:11:19;7.32;;;6.57;;
10031;SDS011;5056;44.272;19.892;2023-07-13T01:13:49;6.63;;;6.05;;
10031;SDS011;5056;44.272;19.892;2023-07-13T01:16:19;6.60;;;6.10;;
10031;SDS011;5056;44.272;19.892;2023-07-13T01:18:55;7.30;;;6.70;;
10031;SDS011;5056;44.272;19.892;2023-07-13T01:21:26;7.20;;;6.60;;
10031;SDS011;5056;44.272;19.892;2023-07-13T01:23:54;6.20;;;5.60;;
10031;SDS011;5056;44.272;19.892;2023-07-13T01:26:24;7.13;;;5.90;;
10031;SDS011;5056;44.272;19.892;2023-07-13T01:28:51;6.10;;;5.60;;
10031;SDS011;5056;44.272;19.892;2023-07-13T01:31:21;6.82;;;6.13;;
10031;SDS011;5056;44.272;19.892;2023-07-13T01:33:51;6.82;;;6.22;;
10031;SDS011;5056;44.272;19.892;2023-07-13T01:36:18;6.35;;;5.82;;
10031;SDS011;5056;44.272;19.892;2023-07-13T01:38:50;8.35;;;7.05;;
10031;SDS011;5056;44.272;19.892;2023-07-13T01:41:17;7.05;;;6.45;;
10031;SDS011;5056;44.272;19.892;2023-07-13T01:43:45;6.55;;;5.82;;
10031;SDS011;5056;44.272;19.892;2023-07-13T01:46:13;6.78;;;6.07;;
10031;SDS011;5056;44.272;19.892;2023-07-13T01:48:45;11.75;;;6.22;;
10031;SDS011;5056;44.272;19.892;2023-07-13T01:51:13;6.40;;;5.90;;
10031;SDS011;5056;44.272;19.892;2023-07-13T01:53:42;6.85;;;6.15;;
10031;SDS011;5056;44.272;19.892;2023-07-13T01:56:12;7.18;;;6.03;;
10031;SDS011;5056;44.272;19.892;2023-07-13T01:58:39;6.50;;;5.90;;
10031;SDS011;5056;44.272;19.892;2023-07-13T02:01:06;7.88;;;6.25;;
10031;SDS011;5056;44.272;19.892;2023-07-13T02:03:34;7.10;;;6.50;;
10031;SDS011;5056;44.272;19.892;2023-07-13T02:06:03;6.75;;;6.15;;
10031;SDS011;5056;44.272;19.892;2023-07-13T02:08:32;7.10;;;6.18;;
10031;SDS011;5056;44.272;19.892;2023-07-13T02:10:59;7.18;;;6.47;;
10031;SDS011;5056;44.272;19.892;2023-07-13T02:13:28;6.35;;;5.68;;
10031;SDS011;5056;44.272;19.892;2023-07-13T02:16:03;6.50;;;5.80;;
10031;SDS011;5056;44.272;19.892;2023-07-13T02:18:31;7.78;;;5.50;;
10031;SDS011;5056;44.272;19.892;2023-07-13T02:20:59;7.00;;;5.40;;
10031;SDS011;5056;44.272;19.892;2023-07-13T02:23:26;6.93;;;6.32;;
10031;SDS011;5056;44.272;19.892;2023-07-13T02:25:54;7.28;;;6.57;;
10031;SDS011;5056;44.272;19.892;2023-07-13T02:28:22;6.80;;;6.15;;
10031;SDS011;5056;44.272;19.892;2023-07-13T02:30:50;6.75;;;6.13;;
10031;SDS011;5056;44.272;19.892;2023-07-13T02:33:19;6.55;;;5.97;;
10031;SDS011;5056;44.272;19.892;2023-07-13T02:35:46;6.60;;;6.00;;
10031;SDS011;5056;44.272;19.892;2023-07-13T02:38:13;6.95;;;6.20;;
10031;SDS011;5056;44.272;19.892;2023-07-13T02:40:41;9.07;;;6.75;;
10031;SDS011;5056;44.272;19.892;2023-07-13T02:43:09;6.60;;;6.00;;
10031;SDS011;5056;44.272;19.892;2023-07-13T02:45:36;6.88;;;6.10;;
10031;SDS011;5056;44.272;19.892;2023-07-13T02:48:06;6.57;;;5.90;;
10031;SDS011;5056;44.272;19.892;2023-07-13T02:50:33;6.75;;;6.03;;
10031;SDS011;5056;44.272;19.892;2023-07-13T02:53:17;6.25;;;5.75;;
10031;SDS011;5056;44.272;19.892;2023-07-13T02:55:44;6.35;;;5.63;;
10031;SDS011;5056;44.272;19.892;2023-07-13T02:58:12;8.95;;;6.28;;
10031;SDS011;5056;44.272;19.892;2023-07-13T03:00:53;7.30;;;6.60;;
10031;SDS011;5056;44.272;19.892;2023-07-13T03:03:24;6.53;;;5.93;;
10031;SDS011;5056;44.272;19.892;2023-07-13T03:05:57;8.57;;;6.75;;
10031;SDS011;5056;44.272;19.892;2023-07-13T03:08:31;7.85;;;6.25;;
10031;SDS011;5056;44.272;19.892;2023-07-13T03:10:59;7.05;;;6.45;;
10031;SDS011;5056;44.272;19.892;2023-07-13T03:13:27;6.85;;;6.25;;
10031;SDS011;5056;44.272;19.892;2023-07-13T03:15:55;6.88;;;6.18;;
10031;SDS011;5056;44.272;19.892;2023-07-13T03:18:25;7.35;;;6.32;;
10031;SDS011;5056;44.272;19.892;2023-07-13T03:20:53;7.53;;;6.25;;
10031;SDS011;5056;44.272;19.892;2023-07-13T03:23:28;7.53;;;6.82;;
10031;SDS011;5056;44.272;19.892;2023-07-13T03:26:03;7.18;;;6.65;;
10031;SDS011;5056;44.272;19.892;2023-07-13T03:28:52;6.70;;;6.10;;
10031;SDS011;5056;44.272;19.892;2023-07-13T03:31:21;9.20;;;6.78;;
10031;SDS011;5056;44.272;19.892;2023-07-13T03:33:56;10.70;;;7.60;;
10031;SDS011;5056;44.272;19.892;2023-07-13T03:36:26;8.25;;;7.40;;
10031;SDS011;5056;44.272;19.892;2023-07-13T03:38:55;7.07;;;6.47;;
10031;SDS011;5056;44.272;19.892;2023-07-13T03:41:23;7.97;;;6.88;;
10031;SDS011;5056;44.272;19.892;2023-07-13T03:43:51;7.78;;;7.07;;
10031;SDS011;5056;44.272;19.892;2023-07-13T03:46:18;10.50;;;6.82;;
10031;SDS011;5056;44.272;19.892;2023-07-13T03:48:46;7.82;;;6.53;;
10031;SDS011;5056;44.272;19.892;2023-07-13T03:51:16;8.60;;;7.13;;
10031;SDS011;5056;44.272;19.892;2023-07-13T03:53:44;7.63;;;6.88;;
10031;SDS011;5056;44.272;19.892;2023-07-13T03:56:12;7.05;;;6.35;;
10031;SDS011;5056;44.272;19.892;2023-07-13T03:58:41;7.20;;;6.60;;
10031;SDS011;5056;44.272;19.892;2023-07-13T04:01:09;7.78;;;7.05;;
10031;SDS011;5056;44.272;19.892;2023-07-13T04:03:37;7.70;;;6.90;;
10031;SDS011;5056;44.272;19.892;2023-07-13T04:06:04;7.35;;;6.60;;
10031;SDS011;5056;44.272;19.892;2023-07-13T04:08:35;6.60;;;5.93;;
10031;SDS011;5056;44.272;19.892;2023-07-13T04:11:03;6.90;;;6.22;;
10031;SDS011;5056;44.272;19.892;2023-07-13T04:13:30;7.60;;;6.97;;
10031;SDS011;5056;44.272;19.892;2023-07-13T04:15:57;9.23;;;6.32;;
10031;SDS011;5056;44.272;19.892;2023-07-13T04:18:24;7.25;;;6.55;;
10031;SDS011;5056;44.272;19.892;2023-07-13T04:20:51;7.05;;;6.40;;
10031;SDS011;5056;44.272;19.892;2023-07-13T04:23:18;7.03;;;6.40;;
10031;SDS011;5056;44.272;19.892;2023-07-13T04:25:47;9.95;;;7.28;;
10031;SDS011;5056;44.272;19.892;2023-07-13T04:28:18;6.93;;;6.32;;
10031;SDS011;5056;44.272;19.892;2023-07-13T04:33:27;10.10;;;7.15;;
10031;SDS011;5056;44.272;19.892;2023-07-13T04:35:55;6.82;;;5.97;;
10031;SDS011;5056;44.272;19.892;2023-07-13T04:38:26;7.03;;;6.32;;
10031;SDS011;5056;44.272;19.892;2023-07-13T04:40:57;6.85;;;6.25;;
10031;SDS011;5056;44.272;19.892;2023-07-13T04:43:25;7.28;;;6.07;;
10031;SDS011;5056;44.272;19.892;2023-07-13T04:46:02;6.80;;;6.28;;
10031;SDS011;5056;44.272;19.892;2023-07-13T04:48:30;6.72;;;6.13;;
10031;SDS011;5056;44.272;19.892;2023-07-13T04:50:57;6.75;;;6.15;;
10031;SDS011;5056;44.272;19.892;2023-07-13T04:53:25;8.25;;;6.65;;
10031;SDS011;5056;44.272;19.892;2023-07-13T04:55:52;6.75;;;6.25;;
10031;SDS011;5056;44.272;19.892;2023-07-13T04:58:23;6.70;;;6.20;;
10031;SDS011;5056;44.272;19.892;2023-07-13T05:00:50;7.40;;;6.78;;
10031;SDS011;5056;44.272;19.892;2023-07-13T05:03:17;6.32;;;5.78;;
10031;SDS011;5056;44.272;19.892;2023-07-13T05:05:54;8.85;;;6.75;;
10031;SDS011;5056;44.272;19.892;2023-07-13T05:08:24;7.47;;;6.70;;
10031;SDS011;5056;44.272;19.892;2023-07-13T05:10:52;6.55;;;5.95;;
10031;SDS011;5056;44.272;19.892;2023-07-13T05:13:19;5.88;;;5.38;;
10031;SDS011;5056;44.272;19.892;2023-07-13T05:15:55;6.78;;;6.18;;
10031;SDS011;5056;44.272;19.892;2023-07-13T05:18:22;6.55;;;5.97;;
10031;SDS011;5056;44.272;19.892;2023-07-13T05:20:56;7.15;;;5.80;;
10031;SDS011;5056;44.272;19.892;2023-07-13T05:23:23;6.15;;;5.70;;
10031;SDS011;5056;44.272;19.892;2023-07-13T05:25:51;6.22;;;5.68;;
10031;SDS011;5056;44.272;19.892;2023-07-13T05:31:13;7.22;;;6.53;;
10031;SDS011;5056;44.272;19.892;2023-07-13T05:33:47;7.18;;;6.55;;
10031;SDS011;5056;44.272;19.892;2023-07-13T05:36:21;7.30;;;6.57;;
10031;SDS011;5056;44.272;19.892;2023-07-13T05:38:49;7.57;;;6.80;;
10031;SDS011;5056;44.272;19.892;2023-07-13T05:41:23;7.93;;;7.13;;
10031;SDS011;5056;44.272;19.892;2023-07-13T05:46:36;6.70;;;6.10;;
10031;SDS011;5056;44.272;19.892;2023-07-13T05:49:03;6.40;;;5.90;;
10031;SDS011;5056;44.272;19.892;2023-07-13T05:51:30;6.65;;;6.05;;
10031;SDS011;5056;44.272;19.892;2023-07-13T05:53:57;6.60;;;6.00;;
10031;SDS011;5056;44.272;19.892;2023-07-13T05:56:27;6.47;;;5.88;;
10031;SDS011;5056;44.272;19.892;2023-07-13T05:58:54;6.85;;;6.25;;
10031;SDS011;5056;44.272;19.892;2023-07-13T06:01:24;6.93;;;6.20;;
10031;SDS011;5056;44.272;19.892;2023-07-13T06:03:51;6.85;;;6.30;;
10031;SDS011;5056;44.272;19.892;2023-07-13T06:06:18;8.23;;;7.20;;
10031;SDS011;5056;44.272;19.892;2023-07-13T06:11:24;6.85;;;6.25;;
10031;SDS011;5056;44.272;19.892;2023-07-13T06:14:00;8.30;;;7.50;;
10031;SDS011;5056;44.272;19.892;2023-07-13T06:16:37;8.40;;;7.45;;
10031;SDS011;5056;44.272;19.892;2023-07-13T06:19:05;8.43;;;7.57;;
10031;SDS011;5056;44.272;19.892;2023-07-13T06:21:35;9.35;;;7.57;;
10031;SDS011;5056;44.272;19.892;2023-07-13T06:24:04;7.25;;;6.57;;
10031;SDS011;5056;44.272;19.892;2023-07-13T06:26:49;7.70;;;6.97;;
10031;SDS011;5056;44.272;19.892;2023-07-13T06:29:16;9.25;;;8.02;;
10031;SDS011;5056;44.272;19.892;2023-07-13T06:32:00;9.48;;;7.90;;
10031;SDS011;5056;44.272;19.892;2023-07-13T06:34:28;9.80;;;7.53;;
10031;SDS011;5056;44.272;19.892;2023-07-13T06:36:56;7.63;;;6.82;;
10031;SDS011;5056;44.272;19.892;2023-07-13T06:39:23;9.73;;;7.43;;
10031;SDS011;5056;44.272;19.892;2023-07-13T06:41:51;8.20;;;7.07;;
10031;SDS011;5056;44.272;19.892;2023-07-13T06:44:17;10.50;;;7.75;;
10031;SDS011;5056;44.272;19.892;2023-07-13T06:46:44;9.98;;;7.40;;
10031;SDS011;5056;44.272;19.892;2023-07-13T06:49:14;9.05;;;7.55;;
10031;SDS011;5056;44.272;19.892;2023-07-13T06:51:41;12.43;;;7.25;;
10031;SDS011;5056;44.272;19.892;2023-07-13T06:54:08;17.17;;;8.73;;
10031;SDS011;5056;44.272;19.892;2023-07-13T06:56:35;26.52;;;10.40;;
10031;SDS011;5056;44.272;19.892;2023-07-13T06:59:02;28.02;;;10.55;;
10031;SDS011;5056;44.272;19.892;2023-07-13T07:01:29;27.98;;;9.90;;
10031;SDS011;5056;44.272;19.892;2023-07-13T07:03:57;15.85;;;9.38;;
10031;SDS011;5056;44.272;19.892;2023-07-13T07:06:26;13.57;;;8.30;;
10031;SDS011;5056;44.272;19.892;2023-07-13T07:08:53;13.05;;;8.38;;
10031;SDS011;5056;44.272;19.892;2023-07-13T07:11:21;16.95;;;8.63;;
10031;SDS011;5056;44.272;19.892;2023-07-13T07:13:49;13.20;;;7.57;;
10031;SDS011;5056;44.272;19.892;2023-07-13T07:16:17;11.27;;;7.60;;
10031;SDS011;5056;44.272;19.892;2023-07-13T07:18:45;20.55;;;7.93;;
10031;SDS011;5056;44.272;19.892;2023-07-13T07:21:13;18.10;;;8.20;;
10031;SDS011;5056;44.272;19.892;2023-07-13T07:23:44;12.60;;;8.40;;
10031;SDS011;5056;44.272;19.892;2023-07-13T07:26:11;17.63;;;9.18;;
10031;SDS011;5056;44.272;19.892;2023-07-13T07:28:39;14.77;;;8.00;;
10031;SDS011;5056;44.272;19.892;2023-07-13T07:31:08;14.52;;;7.80;;
10031;SDS011;5056;44.272;19.892;2023-07-13T07:33:35;8.77;;;7.50;;
10031;SDS011;5056;44.272;19.892;2023-07-13T07:36:04;12.35;;;7.43;;
10031;SDS011;5056;44.272;19.892;2023-07-13T07:38:32;11.00;;;8.32;;
10031;SDS011;5056;44.272;19.892;2023-07-13T07:41:02;12.23;;;7.07;;
10031;SDS011;5056;44.272;19.892;2023-07-13T07:43:29;21.95;;;8.48;;
10031;SDS011;5056;44.272;19.892;2023-07-13T07:45:57;12.25;;;8.13;;
10031;SDS011;5056;44.272;19.892;2023-07-13T07:48:27;11.57;;;7.78;;
10031;SDS011;5056;44.272;19.892;2023-07-13T07:50:54;13.50;;;7.80;;
10031;SDS011;5056;44.272;19.892;2023-07-13T07:53:21;11.77;;;8.27;;
10031;SDS011;5056;44.272;19.892;2023-07-13T07:59:00;12.80;;;7.72;;
10031;SDS011;5056;44.272;19.892;2023-07-13T08:01:27;8.18;;;7.38;;
10031;SDS011;5056;44.272;19.892;2023-07-13T08:03:54;14.48;;;7.03;;
10031;SDS011;5056;44.272;19.892;2023-07-13T08:06:21;6.90;;;6.18;;
10031;SDS011;5056;44.272;19.892;2023-07-13T08:08:48;10.85;;;6.68;;
10031;SDS011;5056;44.272;19.892;2023-07-13T08:11:16;11.18;;;7.57;;
10031;SDS011;5056;44.272;19.892;2023-07-13T08:13:43;11.98;;;7.60;;
10031;SDS011;5056;44.272;19.892;2023-07-13T08:16:12;9.23;;;6.22;;
10031;SDS011;5056;44.272;19.892;2023-07-13T08:18:39;8.52;;;6.85;;
10031;SDS011;5056;44.272;19.892;2023-07-13T08:21:07;7.15;;;6.45;;
10031;SDS011;5056;44.272;19.892;2023-07-13T08:23:35;10.85;;;7.15;;
10031;SDS011;5056;44.272;19.892;2023-07-13T08:26:03;8.02;;;6.88;;
10031;SDS011;5056;44.272;19.892;2023-07-13T08:28:31;11.00;;;6.75;;
10031;SDS011;5056;44.272;19.892;2023-07-13T08:31:01;8.45;;;6.72;;
10031;SDS011;5056;44.272;19.892;2023-07-13T08:33:30;9.43;;;6.93;;
10031;SDS011;5056;44.272;19.892;2023-07-13T08:35:59;8.57;;;7.15;;
10031;SDS011;5056;44.272;19.892;2023-07-13T08:38:26;11.15;;;7.07;;
10031;SDS011;5056;44.272;19.892;2023-07-13T08:40:55;10.18;;;6.55;;
10031;SDS011;5056;44.272;19.892;2023-07-13T08:43:25;8.45;;;6.85;;
10031;SDS011;5056;44.272;19.892;2023-07-13T08:45:58;15.13;;;6.88;;
10031;SDS011;5056;44.272;19.892;2023-07-13T08:48:32;7.60;;;6.85;;
10031;SDS011;5056;44.272;19.892;2023-07-13T08:51:02;9.43;;;6.35;;
10031;SDS011;5056;44.272;19.892;2023-07-13T08:53:38;10.13;;;6.47;;
10031;SDS011;5056;44.272;19.892;2023-07-13T08:56:09;13.10;;;6.55;;
10031;SDS011;5056;44.272;19.892;2023-07-13T08:58:39;8.57;;;6.38;;
10031;SDS011;5056;44.272;19.892;2023-07-13T09:01:10;7.13;;;6.47;;
10031;SDS011;5056;44.272;19.892;2023-07-13T09:03:46;8.18;;;6.57;;
10031;SDS011;5056;44.272;19.892;2023-07-13T09:06:15;9.68;;;6.65;;
10031;SDS011;5056;44.272;19.892;2023-07-13T09:08:46;8.38;;;6.45;;
10031;SDS011;5056;44.272;19.892;2023-07-13T09:11:29;6.07;;;5.57;;
10031;SDS011;5056;44.272;19.892;2023-07-13T09:14:19;6.55;;;6.05;;
10031;SDS011;5056;44.272;19.892;2023-07-13T09:17:02;7.10;;;6.40;;
10031;SDS011;5056;44.272;19.892;2023-07-13T09:19:32;6.85;;;6.03;;
10031;SDS011;5056;44.272;19.892;2023-07-13T09:22:02;7.53;;;6.80;;
10031;SDS011;5056;44.272;19.892;2023-07-13T09:24:41;7.53;;;6.55;;
10031;SDS011;5056;44.272;19.892;2023-07-13T09:27:14;6.97;;;6.30;;
10031;SDS011;5056;44.272;19.892;2023-07-13T09:29:45;9.60;;;6.93;;
10031;SDS011;5056;44.272;19.892;2023-07-13T09:32:13;8.07;;;7.10;;
10031;SDS011;5056;44.272;19.892;2023-07-13T09:34:45;7.07;;;6.47;;
10031;SDS011;5056;44.272;19.892;2023-07-13T09:37:19;6.68;;;5.93;;
10031;SDS011;5056;44.272;19.892;2023-07-13T09:42:35;6.65;;;6.05;;
10031;SDS011;5056;44.272;19.892;2023-07-13T09:45:04;8.15;;;6.53;;
10031;SDS011;5056;44.272;19.892;2023-07-13T09:47:37;7.50;;;6.22;;
10031;SDS011;5056;44.272;19.892;2023-07-13T09:50:09;6.90;;;5.70;;
10031;SDS011;5056;44.272;19.892;2023-07-13T09:52:40;8.68;;;6.05;;
10031;SDS011;5056;44.272;19.892;2023-07-13T09:55:26;8.27;;;5.55;;
10031;SDS011;5056;44.272;19.892;2023-07-13T09:57:57;8.65;;;6.30;;
10031;SDS011;5056;44.272;19.892;2023-07-13T10:00:25;6.70;;;6.07;;
10031;SDS011;5056;44.272;19.892;2023-07-13T10:02:58;7.68;;;5.88;;
10031;SDS011;5056;44.272;19.892;2023-07-13T10:05:48;7.05;;;6.45;;
10031;SDS011;5056;44.272;19.892;2023-07-13T10:08:19;7.18;;;6.03;;
10031;SDS011;5056;44.272;19.892;2023-07-13T10:10:52;7.00;;;5.82;;
10031;SDS011;5056;44.272;19.892;2023-07-13T10:13:27;8.00;;;6.57;;
10031;SDS011;5056;44.272;19.892;2023-07-13T10:15:56;6.05;;;5.55;;
10031;SDS011;5056;44.272;19.892;2023-07-13T10:18:25;11.32;;;6.43;;
10031;SDS011;5056;44.272;19.892;2023-07-13T10:20:55;7.55;;;6.05;;
10031;SDS011;5056;44.272;19.892;2023-07-13T10:23:27;8.38;;;6.57;;
10031;SDS011;5056;44.272;19.892;2023-07-13T10:25:58;20.75;;;6.55;;
10031;SDS011;5056;44.272;19.892;2023-07-13T10:28:29;8.07;;;6.18;;
10031;SDS011;5056;44.272;19.892;2023-07-13T10:30:58;10.70;;;6.75;;
10031;SDS011;5056;44.272;19.892;2023-07-13T10:33:26;9.65;;;6.25;;
10031;SDS011;5056;44.272;19.892;2023-07-13T10:35:59;6.88;;;6.35;;
10031;SDS011;5056;44.272;19.892;2023-07-13T10:38:30;8.10;;;7.07;;
10031;SDS011;5056;44.272;19.892;2023-07-13T10:41:00;7.13;;;6.47;;
10031;SDS011;5056;44.272;19.892;2023-07-13T10:43:31;7.50;;;6.03;;
10031;SDS011;5056;44.272;19.892;2023-07-13T10:46:02;5.55;;;5.15;;
10031;SDS011;5056;44.272;19.892;2023-07-13T10:48:30;6.93;;;6.10;;
10031;SDS011;5056;44.272;19.892;2023-07-13T10:51:01;7.38;;;6.70;;
10031;SDS011;5056;44.272;19.892;2023-07-13T10:53:32;8.75;;;6.68;;
10031;SDS011;5056;44.272;19.892;2023-07-13T10:56:01;7.45;;;6.57;;
10031;SDS011;5056;44.272;19.892;2023-07-13T10:58:34;9.40;;;6.60;;
10031;SDS011;5056;44.272;19.892;2023-07-13T11:01:04;8.05;;;6.50;;
10031;SDS011;5056;44.272;19.892;2023-07-13T11:03:35;13.95;;;7.93;;
10031;SDS011;5056;44.272;19.892;2023-07-13T11:06:07;8.13;;;6.47;;
10031;SDS011;5056;44.272;19.892;2023-07-13T11:08:36;7.30;;;6.70;;
10031;SDS011;5056;44.272;19.892;2023-07-13T11:11:08;9.13;;;6.18;;
10031;SDS011;5056;44.272;19.892;2023-07-13T11:13:59;7.80;;;6.90;;
10031;SDS011;5056;44.272;19.892;2023-07-13T11:16:34;7.80;;;6.13;;
10031;SDS011;5056;44.272;19.892;2023-07-13T11:22:21;6.88;;;6.28;;
10031;SDS011;5056;44.272;19.892;2023-07-13T11:24:50;7.15;;;6.43;;
10031;SDS011;5056;44.272;19.892;2023-07-13T11:30:24;7.55;;;6.88;;
10031;SDS011;5056;44.272;19.892;2023-07-13T11:33:02;6.93;;;6.22;;
10031;SDS011;5056;44.272;19.892;2023-07-13T11:35:34;7.55;;;6.95;;
10031;SDS011;5056;44.272;19.892;2023-07-13T11:38:10;7.70;;;6.82;;
10031;SDS011;5056;44.272;19.892;2023-07-13T11:40:45;10.90;;;6.85;;
10031;SDS011;5056;44.272;19.892;2023-07-13T11:43:14;10.95;;;6.70;;
10031;SDS011;5056;44.272;19.892;2023-07-13T11:45:41;8.90;;;6.72;;
10031;SDS011;5056;44.272;19.892;2023-07-13T11:48:22;7.25;;;6.53;;
10031;SDS011;5056;44.272;19.892;2023-07-13T11:50:53;6.75;;;6.22;;
10031;SDS011;5056;44.272;19.892;2023-07-13T11:53:27;8.27;;;7.00;;
10031;SDS011;5056;44.272;19.892;2023-07-13T11:55:55;7.20;;;6.70;;
10031;SDS011;5056;44.272;19.892;2023-07-13T11:58:23;7.18;;;6.35;;
10031;SDS011;5056;44.272;19.892;2023-07-13T12:00:53;7.80;;;6.25;;
10031;SDS011;5056;44.272;19.892;2023-07-13T12:03:26;12.88;;;7.18;;
10031;SDS011;5056;44.272;19.892;2023-07-13T12:05:58;8.82;;;6.32;;
10031;SDS011;5056;44.272;19.892;2023-07-13T12:08:29;9.07;;;6.68;;
10031;SDS011;5056;44.272;19.892;2023-07-13T12:10:57;8.20;;;7.35;;
10031;SDS011;5056;44.272;19.892;2023-07-13T12:13:34;10.57;;;7.53;;
10031;SDS011;5056;44.272;19.892;2023-07-13T12:16:11;8.10;;;7.30;;
10031;SDS011;5056;44.272;19.892;2023-07-13T12:18:42;7.10;;;6.50;;
10031;SDS011;5056;44.272;19.892;2023-07-13T12:21:13;7.53;;;6.93;;
10031;SDS011;5056;44.272;19.892;2023-07-13T12:23:47;8.77;;;6.65;;
10031;SDS011;5056;44.272;19.892;2023-07-13T12:26:17;8.95;;;7.63;;
10031;SDS011;5056;44.272;19.892;2023-07-13T12:28:47;7.55;;;6.93;;
10031;SDS011;5056;44.272;19.892;2023-07-13T12:31:23;7.05;;;6.45;;
10031;SDS011;5056;44.272;19.892;2023-07-13T12:33:57;8.43;;;7.25;;
10031;SDS011;5056;44.272;19.892;2023-07-13T12:36:25;7.75;;;6.97;;
10031;SDS011;5056;44.272;19.892;2023-07-13T12:39:04;8.68;;;7.72;;
10031;SDS011;5056;44.272;19.892;2023-07-13T12:41:42;6.85;;;6.35;;
10031;SDS011;5056;44.272;19.892;2023-07-13T12:44:14;7.85;;;7.05;;
10031;SDS011;5056;44.272;19.892;2023-07-13T12:47:03;8.10;;;7.22;;
10031;SDS011;5056;44.272;19.892;2023-07-13T12:49:39;6.97;;;6.43;;
10031;SDS011;5056;44.272;19.892;2023-07-13T12:52:14;6.90;;;6.28;;
10031;SDS011;5056;44.272;19.892;2023-07-13T12:57:38;7.60;;;6.90;;
10031;SDS011;5056;44.272;19.892;2023-07-13T13:02:56;8.40;;;7.20;;
10031;SDS011;5056;44.272;19.892;2023-07-13T13:05:33;8.15;;;7.35;;
10031;SDS011;5056;44.272;19.892;2023-07-13T13:08:12;8.52;;;6.82;;
10031;SDS011;5056;44.272;19.892;2023-07-13T13:10:41;9.40;;;6.85;;
10031;SDS011;5056;44.272;19.892;2023-07-13T13:13:10;23.55;;;7.82;;
10031;SDS011;5056;44.272;19.892;2023-07-13T13:15:38;10.35;;;7.75;;
10031;SDS011;5056;44.272;19.892;2023-07-13T13:18:15;7.80;;;7.15;;
10031;SDS011;5056;44.272;19.892;2023-07-13T13:20:43;8.98;;;7.25;;
10031;SDS011;5056;44.272;19.892;2023-07-13T13:23:14;7.68;;;6.95;;
10031;SDS011;5056;44.272;19.892;2023-07-13T13:25:44;9.00;;;6.93;;
10031;SDS011;5056;44.272;19.892;2023-07-13T13:28:13;6.80;;;6.30;;
10031;SDS011;5056;44.272;19.892;2023-07-13T13:34:12;8.48;;;7.13;;
10031;SDS011;5056;44.272;19.892;2023-07-13T13:36:42;7.38;;;6.20;;
10031;SDS011;5056;44.272;19.892;2023-07-13T13:39:19;7.47;;;6.78;;
10031;SDS011;5056;44.272;19.892;2023-07-13T13:41:51;7.93;;;7.07;;
10031;SDS011;5056;44.272;19.892;2023-07-13T13:44:20;7.13;;;6.47;;
10031;SDS011;5056;44.272;19.892;2023-07-13T13:46:49;7.40;;;6.80;;
10031;SDS011;5056;44.272;19.892;2023-07-13T13:49:19;7.18;;;6.38;;
10031;SDS011;5056;44.272;19.892;2023-07-13T13:51:49;7.68;;;6.72;;
10031;SDS011;5056;44.272;19.892;2023-07-13T13:54:16;7.30;;;6.55;;
10031;SDS011;5056;44.272;19.892;2023-07-13T13:56:46;9.15;;;7.30;;
10031;SDS011;5056;44.272;19.892;2023-07-13T13:59:15;7.30;;;6.70;;
10031;SDS011;5056;44.272;19.892;2023-07-13T14:01:44;9.25;;;7.60;;
10031;SDS011;5056;44.272;19.892;2023-07-13T14:04:14;8.27;;;6.30;;
10031;SDS011;5056;44.272;19.892;2023-07-13T14:06:47;7.38;;;6.72;;
10031;SDS011;5056;44.272;19.892;2023-07-13T14:09:30;7.45;;;6.70;;
10031;SDS011;5056;44.272;19.892;2023-07-13T14:12:03;7.38;;;6.72;;
10031;SDS011;5056;44.272;19.892;2023-07-13T14:14:41;11.18;;;7.55;;
10031;SDS011;5056;44.272;19.892;2023-07-13T14:17:11;8.20;;;6.95;;
10031;SDS011;5056;44.272;19.892;2023-07-13T14:19:46;6.90;;;6.20;;
10031;SDS011;5056;44.272;19.892;2023-07-13T14:22:22;14.50;;;7.50;;
10031;SDS011;5056;44.272;19.892;2023-07-13T14:24:51;7.57;;;6.85;;
10031;SDS011;5056;44.272;19.892;2023-07-13T14:27:19;7.10;;;6.40;;
10031;SDS011;5056;44.272;19.892;2023-07-13T14:29:50;7.88;;;7.10;;
10031;SDS011;5056;44.272;19.892;2023-07-13T14:32:18;7.97;;;7.18;;
10031;SDS011;5056;44.272;19.892;2023-07-13T14:34:45;8.30;;;7.53;;
10031;SDS011;5056;44.272;19.892;2023-07-13T14:37:13;8.27;;;7.50;;
10031;SDS011;5056;44.272;19.892;2023-07-13T14:39:44;7.20;;;6.57;;
10031;SDS011;5056;44.272;19.892;2023-07-13T14:42:11;7.78;;;6.60;;
10031;SDS011;5056;44.272;19.892;2023-07-13T14:44:41;6.80;;;6.30;;
10031;SDS011;5056;44.272;19.892;2023-07-13T14:47:09;6.60;;;6.07;;
10031;SDS011;5056;44.272;19.892;2023-07-13T14:49:37;7.03;;;6.53;;
10031;SDS011;5056;44.272;19.892;2023-07-13T14:52:10;9.43;;;7.72;;
10031;SDS011;5056;44.272;19.892;2023-07-13T14:54:38;9.25;;;6.63;;
10031;SDS011;5056;44.272;19.892;2023-07-13T14:57:09;7.32;;;6.72;;
10031;SDS011;5056;44.272;19.892;2023-07-13T14:59:37;7.43;;;6.75;;
10031;SDS011;5056;44.272;19.892;2023-07-13T15:04:51;6.80;;;6.30;;
10031;SDS011;5056;44.272;19.892;2023-07-13T15:07:20;7.65;;;6.72;;
10031;SDS011;5056;44.272;19.892;2023-07-13T15:09:48;7.30;;;6.60;;
10031;SDS011;5056;44.272;19.892;2023-07-13T15:12:16;7.72;;;6.97;;
10031;SDS011;5056;44.272;19.892;2023-07-13T15:14:43;7.82;;;7.13;;
10031;SDS011;5056;44.272;19.892;2023-07-13T15:17:17;7.90;;;7.03;;
10031;SDS011;5056;44.272;19.892;2023-07-13T15:19:54;8.75;;;7.95;;
10031;SDS011;5056;44.272;19.892;2023-07-13T15:22:22;7.78;;;6.97;;
10031;SDS011;5056;44.272;19.892;2023-07-13T15:24:50;10.60;;;7.97;;
10031;SDS011;5056;44.272;19.892;2023-07-13T15:27:17;8.30;;;7.47;;
10031;SDS011;5056;44.272;19.892;2023-07-13T15:32:44;8.23;;;7.53;;
10031;SDS011;5056;44.272;19.892;2023-07-13T15:35:18;8.30;;;7.60;;
10031;SDS011;5056;44.272;19.892;2023-07-13T15:37:47;13.00;;;8.60;;
10031;SDS011;5056;44.272;19.892;2023-07-13T15:40:15;11.43;;;8.88;;
10031;SDS011;5056;44.272;19.892;2023-07-13T15:42:43;10.30;;;9.40;;